Terminal Aerodrome Forecast
Issued by NWS Upton, NY

Home | Current Version | Previous Version | Text Only | Print | Product List | Glossary On
Versions: 1 2 3 4 5 6 7 8 9 10 11 12 13 14 15 16 17 18 19 20 21 22 23 24 25 26 27 28 29 30 31 32 33 34 35 36 37 38 39
445
FTUS41 KOKX 201933 AAA
TAFEWR
TAF AMD
KEWR 201933Z 2020/2124 22010KT P6SM SCT015 BKN250
     FM202300 20006KT P6SM SCT015 BKN250
     FM210300 21004KT 3SM BR BKN007
     FM210500 20004KT 1/2SM FG BKN004
     FM211300 21009KT 2SM BR SCT005 BKN015
     FM211500 22011G17KT P6SM SCT015 BKN040
     FM211900 24012G20KT P6SM SCT020 BKN250
     FM212100 20009KT P6SM BKN040=

USA.gov is the U.S. government's official web portal to all federal, state and local government web resources and services.